createdAt,value
2023-10-19T00:00:49.410Z,11.55
2023-10-19T00:03:17.165Z,11.60
2023-10-19T00:05:46.181Z,11.60
2023-10-19T00:08:22.125Z,11.60
2023-10-19T00:11:02.598Z,11.65
2023-10-19T00:13:30.200Z,11.63
2023-10-19T00:15:58.845Z,11.65
2023-10-19T00:18:25.590Z,11.63
2023-10-19T00:20:54.246Z,11.70
2023-10-19T00:23:32.105Z,11.70
2023-10-19T00:26:10.913Z,11.72
2023-10-19T00:28:39.658Z,11.68
2023-10-19T00:31:09.503Z,11.70
2023-10-19T00:33:39.866Z,11.66
2023-10-19T00:36:10.351Z,11.73
2023-10-19T00:38:37.887Z,11.76
2023-10-19T00:41:11.273Z,11.80
2023-10-19T00:43:45.790Z,11.82
2023-10-19T00:46:22.613Z,11.84
2023-10-19T00:48:59.364Z,11.81
2023-10-19T00:51:34.411Z,11.87
2023-10-19T00:54:10.428Z,11.85
2023-10-19T00:56:37.350Z,11.94
2023-10-19T00:59:20.598Z,11.96
2023-10-19T01:01:49.371Z,12.02
2023-10-19T01:04:21.378Z,12.06
2023-10-19T01:07:01.930Z,12.10
2023-10-19T01:09:29.745Z,12.17
2023-10-19T01:11:56.439Z,12.23
2023-10-19T01:14:24.572Z,12.31
2023-10-19T01:16:51.179Z,12.31
2023-10-19T01:19:21.891Z,12.37
2023-10-19T01:21:52.477Z,12.41
2023-10-19T01:24:25.656Z,12.57
2023-10-19T01:26:52.364Z,12.67
2023-10-19T01:29:27.110Z,12.79
2023-10-19T01:32:07.526Z,13.00
2023-10-19T01:34:38.112Z,13.15
2023-10-19T01:37:07.486Z,13.25
2023-10-19T01:39:36.514Z,13.34
2023-10-19T01:42:06.158Z,13.43
2023-10-19T01:44:33.000Z,13.50
2023-10-19T01:47:02.029Z,13.55
2023-10-19T01:49:29.332Z,13.63
2023-10-19T01:51:56.182Z,13.67
2023-10-19T01:54:25.796Z,13.70
2023-10-19T01:56:57.657Z,13.67
2023-10-19T01:59:28.375Z,13.76
2023-10-19T02:01:56.109Z,13.80
2023-10-19T02:04:26.936Z,13.76
2023-10-19T02:06:54.516Z,13.77
2023-10-19T02:09:33.633Z,13.79
2023-10-19T02:12:00.134Z,13.76
2023-10-19T02:14:28.119Z,13.77
2023-10-19T02:17:00.573Z,13.74
2023-10-19T02:19:28.457Z,13.71
2023-10-19T02:22:00.597Z,13.71
2023-10-19T02:24:27.452Z,13.59
2023-10-19T02:26:56.543Z,13.74
2023-10-19T02:29:23.371Z,13.73
2023-10-19T02:31:50.860Z,13.65
2023-10-19T02:34:17.304Z,13.69
2023-10-19T02:36:45.388Z,13.67
2023-10-19T02:39:15.132Z,13.68
2023-10-19T02:41:44.993Z,13.71
2023-10-19T02:44:19.790Z,13.71
2023-10-19T02:46:48.139Z,13.69
2023-10-19T02:49:19.405Z,13.68
2023-10-19T02:51:47.077Z,13.68
2023-10-19T02:54:21.038Z,13.69
2023-10-19T02:56:52.875Z,13.65
2023-10-19T02:59:24.159Z,13.65
2023-10-19T03:02:16.680Z,13.48
2023-10-19T03:04:43.970Z,13.57
2023-10-19T03:07:13.597Z,13.56
2023-10-19T03:09:39.996Z,13.52
2023-10-19T03:12:15.072Z,13.53
2023-10-19T03:14:47.578Z,13.56
2023-10-19T03:17:14.127Z,13.60
2023-10-19T03:19:40.503Z,13.61
2023-10-19T03:22:10.268Z,13.61
2023-10-19T03:24:37.170Z,13.60
2023-10-19T03:27:13.827Z,13.61
2023-10-19T03:29:41.631Z,13.62
2023-10-19T03:32:08.548Z,13.56
2023-10-19T03:34:39.261Z,13.61
2023-10-19T03:37:07.553Z,13.55
2023-10-19T03:39:35.381Z,13.63
2023-10-19T03:42:02.002Z,13.65
2023-10-19T03:44:36.840Z,13.61
2023-10-19T03:47:06.308Z,13.60
2023-10-19T03:49:37.649Z,13.64
2023-10-19T03:52:10.201Z,13.62
2023-10-19T03:54:43.007Z,13.59
2023-10-19T03:57:16.187Z,13.58
2023-10-19T03:59:43.402Z,13.60
2023-10-19T04:02:17.904Z,13.61
2023-10-19T04:04:45.157Z,13.57
2023-10-19T04:07:18.761Z,13.58
2023-10-19T04:10:04.212Z,13.55
2023-10-19T04:12:31.973Z,13.51
2023-10-19T04:15:10.887Z,13.50
2023-10-19T04:17:40.958Z,13.48
2023-10-19T04:20:20.153Z,13.43
2023-10-19T04:22:48.104Z,13.39
2023-10-19T04:25:19.893Z,13.36
2023-10-19T04:27:47.734Z,13.31
2023-10-19T04:30:19.177Z,13.29
2023-10-19T04:32:50.558Z,13.28
2023-10-19T04:35:23.665Z,13.23
2023-10-19T04:37:51.748Z,13.18
2023-10-19T04:40:18.940Z,13.15
2023-10-19T04:42:47.009Z,13.14
2023-10-19T04:45:14.742Z,13.09
2023-10-19T04:47:41.300Z,13.07
2023-10-19T04:50:08.192Z,13.05
2023-10-19T04:52:35.259Z,13.00
2023-10-19T04:55:02.371Z,12.92
2023-10-19T04:57:29.110Z,12.85
2023-10-19T04:59:56.442Z,12.79
2023-10-19T05:02:23.474Z,12.80
2023-10-19T05:04:50.095Z,12.81
2023-10-19T05:07:19.704Z,12.88
2023-10-19T05:09:47.043Z,12.95
2023-10-19T05:12:15.649Z,12.97
2023-10-19T05:14:43.321Z,13.01
2023-10-19T05:17:10.602Z,13.03
2023-10-19T05:19:38.695Z,12.98
2023-10-19T05:22:07.175Z,13.01
2023-10-19T05:24:34.016Z,13.04
2023-10-19T05:27:00.785Z,13.06
2023-10-19T05:29:27.494Z,13.07
2023-10-19T05:31:55.238Z,13.07
2023-10-19T05:34:22.643Z,13.04
2023-10-19T05:36:52.814Z,13.05
2023-10-19T05:39:19.391Z,13.04
2023-10-19T05:41:45.694Z,13.05
2023-10-19T05:44:12.091Z,13.01
2023-10-19T05:46:39.370Z,12.98
2023-10-19T05:49:07.297Z,12.98
2023-10-19T05:51:33.861Z,12.96
2023-10-19T05:54:02.961Z,12.96
2023-10-19T05:56:31.577Z,12.99
2023-10-19T05:58:58.866Z,13.03
2023-10-19T06:01:25.673Z,13.05
2023-10-19T06:03:52.432Z,13.05
2023-10-19T06:06:20.809Z,13.08
2023-10-19T06:08:47.569Z,13.12
2023-10-19T06:11:14.464Z,13.10
2023-10-19T06:13:40.912Z,13.13
2023-10-19T06:16:07.492Z,13.17
2023-10-19T06:18:34.043Z,13.23
2023-10-19T06:21:00.458Z,13.29
2023-10-19T06:23:26.793Z,13.33
2023-10-19T06:25:53.256Z,13.42
2023-10-19T06:28:19.625Z,13.49
2023-10-19T06:30:49.192Z,13.57
2023-10-19T06:33:15.766Z,13.57
2023-10-19T06:35:42.194Z,13.61
2023-10-19T06:38:10.503Z,13.64
2023-10-19T06:40:37.575Z,13.69
2023-10-19T06:43:04.240Z,13.74
2023-10-19T06:45:30.919Z,13.74
2023-10-19T06:47:58.151Z,13.81
2023-10-19T06:50:25.235Z,13.90
2023-10-19T06:52:52.878Z,13.94
2023-10-19T06:55:21.142Z,13.99
2023-10-19T06:57:52.559Z,14.05
2023-10-19T07:00:21.350Z,14.11
2023-10-19T07:02:49.066Z,14.16
2023-10-19T07:05:19.438Z,14.21
2023-10-19T07:07:46.673Z,14.25
2023-10-19T07:10:14.972Z,14.29
2023-10-19T07:12:52.957Z,14.35
2023-10-19T07:15:23.384Z,14.38
2023-10-19T07:17:53.448Z,14.42
2023-10-19T07:20:26.563Z,14.48
2023-10-19T07:22:57.785Z,14.53
2023-10-19T07:25:26.760Z,14.64
2023-10-19T07:27:54.241Z,14.71
2023-10-19T07:30:22.480Z,14.71
2023-10-19T07:32:55.365Z,14.71
2023-10-19T07:35:23.751Z,14.73
2023-10-19T07:37:51.311Z,14.72
2023-10-19T07:40:19.010Z,14.79
2023-10-19T07:42:46.751Z,14.88
2023-10-19T07:45:13.651Z,14.94
2023-10-19T07:47:44.305Z,15.01
2023-10-19T07:50:16.965Z,15.05
2023-10-19T07:52:52.109Z,15.07
2023-10-19T07:55:20.068Z,15.12
2023-10-19T07:57:46.455Z,15.18
2023-10-19T08:00:16.215Z,15.28
2023-10-19T08:02:48.698Z,15.35
2023-10-19T08:05:16.107Z,15.42
2023-10-19T08:07:48.204Z,15.44
2023-10-19T08:10:17.588Z,15.44
2023-10-19T08:12:48.472Z,15.44
2023-10-19T08:15:16.622Z,15.44
2023-10-19T08:17:46.213Z,15.46
2023-10-19T08:20:17.469Z,15.49
2023-10-19T08:22:47.696Z,15.55
2023-10-19T08:25:16.104Z,15.58
2023-10-19T08:27:45.961Z,15.68
2023-10-19T08:30:21.302Z,15.81
2023-10-19T08:32:52.487Z,15.93
2023-10-19T08:35:25.273Z,15.99
2023-10-19T08:37:52.079Z,16.10
2023-10-19T08:40:19.328Z,16.45
2023-10-19T08:42:46.902Z,17.45
2023-10-19T08:45:14.419Z,18.62
2023-10-19T08:48:00.701Z,19.19
2023-10-19T08:50:38.484Z,19.19
2023-10-19T08:53:09.661Z,18.83
2023-10-19T08:55:49.501Z,18.60
2023-10-19T08:58:19.380Z,18.56
2023-10-19T09:00:55.778Z,18.53
2023-10-19T09:03:23.542Z,18.56
2023-10-19T09:05:50.522Z,18.70
2023-10-19T09:08:19.021Z,18.87
2023-10-19T09:10:47.173Z,19.11
2023-10-19T09:13:15.622Z,19.55
2023-10-19T09:15:42.784Z,20.07
2023-10-19T09:18:23.929Z,20.22
2023-10-19T09:20:55.456Z,20.29
2023-10-19T09:23:28.299Z,20.07
2023-10-19T09:25:54.946Z,19.91
2023-10-19T09:28:23.205Z,19.64
2023-10-19T09:30:51.267Z,19.48
2023-10-19T09:33:18.937Z,19.36
2023-10-19T09:35:49.616Z,19.25
2023-10-19T09:38:23.126Z,19.25
2023-10-19T09:40:51.638Z,19.23
2023-10-19T09:43:25.807Z,19.19
2023-10-19T09:45:55.562Z,19.12
2023-10-19T09:48:22.576Z,19.03
2023-10-19T09:50:56.342Z,19.02
2023-10-19T09:53:26.416Z,18.98
2023-10-19T09:55:56.930Z,18.92
2023-10-19T09:58:27.309Z,18.93
2023-10-19T10:00:53.760Z,18.98
2023-10-19T10:03:48.616Z,19.09
2023-10-19T10:06:28.917Z,19.21
2023-10-19T10:08:57.033Z,19.28
2023-10-19T10:11:28.018Z,19.31
2023-10-19T10:13:56.834Z,19.28
2023-10-19T10:16:26.130Z,19.27
2023-10-19T10:18:56.806Z,19.26
2023-10-19T10:21:27.677Z,19.18
2023-10-19T10:24:00.604Z,19.09
2023-10-19T10:26:37.848Z,19.16
2023-10-19T10:29:23.552Z,19.18
2023-10-19T10:31:50.834Z,19.28
2023-10-19T10:34:38.795Z,19.39
2023-10-19T10:37:08.959Z,19.45
2023-10-19T10:39:40.562Z,19.49
2023-10-19T10:42:08.486Z,19.61
2023-10-19T10:44:41.265Z,19.67
2023-10-19T10:47:09.582Z,19.65
2023-10-19T10:49:59.017Z,19.71
2023-10-19T10:52:36.534Z,19.73
2023-10-19T10:55:14.464Z,19.74
2023-10-19T10:57:44.609Z,19.84
2023-10-19T11:00:24.804Z,19.79
2023-10-19T11:03:08.544Z,19.71
2023-10-19T11:05:36.451Z,19.69
2023-10-19T11:08:19.376Z,19.64
2023-10-19T11:10:49.860Z,19.62
2023-10-19T11:13:18.126Z,19.57
2023-10-19T11:15:51.129Z,19.48
2023-10-19T11:18:53.030Z,19.46
2023-10-19T11:21:19.759Z,19.37
2023-10-19T11:23:48.817Z,19.34
2023-10-19T11:26:20.033Z,19.32
2023-10-19T11:28:52.607Z,19.30
2023-10-19T11:31:19.872Z,19.30
2023-10-19T11:33:49.669Z,19.28
2023-10-19T11:36:17.661Z,19.17
2023-10-19T11:38:45.714Z,19.22
2023-10-19T11:41:14.291Z,19.24
2023-10-19T11:43:44.034Z,19.18
2023-10-19T11:46:13.022Z,19.17
2023-10-19T11:48:43.464Z,19.17
2023-10-19T11:51:12.069Z,19.12
2023-10-19T11:53:39.585Z,19.08
2023-10-19T11:56:08.621Z,19.09
2023-10-19T11:58:36.024Z,19.03
2023-10-19T12:01:17.771Z,19.05
2023-10-19T12:03:46.707Z,19.10
2023-10-19T12:06:14.741Z,19.10
2023-10-19T12:08:41.485Z,19.03
2023-10-19T12:11:17.615Z,18.94
2023-10-19T12:13:44.613Z,18.86
2023-10-19T12:16:13.663Z,18.80
2023-10-19T12:18:40.655Z,18.74
2023-10-19T12:21:12.624Z,18.69
2023-10-19T12:23:44.284Z,18.65
2023-10-19T12:26:14.200Z,18.62
2023-10-19T12:28:41.982Z,18.61
2023-10-19T12:31:10.034Z,18.62
2023-10-19T12:33:37.384Z,18.63
2023-10-19T12:36:23.000Z,18.65
2023-10-19T12:38:50.527Z,18.60
2023-10-19T12:41:18.365Z,18.56
2023-10-19T12:43:44.846Z,18.51
2023-10-19T12:46:13.193Z,18.46
2023-10-19T12:48:39.593Z,18.48
2023-10-19T12:51:08.090Z,18.48
2023-10-19T12:53:34.505Z,18.48
2023-10-19T12:56:00.934Z,18.42
2023-10-19T12:58:28.752Z,18.35
2023-10-19T13:00:56.991Z,18.27
2023-10-19T13:03:25.040Z,18.26
2023-10-19T13:05:51.429Z,18.15
2023-10-19T13:08:17.870Z,18.21
2023-10-19T13:10:45.912Z,18.10
2023-10-19T13:13:14.192Z,18.10
2023-10-19T13:15:42.840Z,18.09
2023-10-19T13:18:10.943Z,18.13
2023-10-19T13:20:39.710Z,18.13
2023-10-19T13:23:20.833Z,18.06
2023-10-19T13:26:10.412Z,17.92
2023-10-19T13:28:39.914Z,17.84
2023-10-19T13:31:10.225Z,17.77
2023-10-19T13:33:37.646Z,17.69
2023-10-19T13:36:06.748Z,17.70
2023-10-19T13:38:33.935Z,17.67
2023-10-19T13:41:03.402Z,17.63
2023-10-19T13:43:32.066Z,17.60
2023-10-19T13:46:02.476Z,17.56
2023-10-19T13:48:29.076Z,17.47
2023-10-19T13:51:01.307Z,17.41
2023-10-19T13:53:28.516Z,17.34
2023-10-19T13:55:54.965Z,17.23
2023-10-19T13:58:22.291Z,17.16
2023-10-19T14:00:50.244Z,17.13
2023-10-19T14:03:16.858Z,17.08
2023-10-19T14:05:48.963Z,17.05
2023-10-19T14:08:17.722Z,17.03
2023-10-19T14:10:44.440Z,16.98
2023-10-19T14:13:17.984Z,16.96
2023-10-19T14:15:45.142Z,16.95
2023-10-19T14:18:14.866Z,16.95
2023-10-19T14:20:41.705Z,17.00
2023-10-19T14:23:08.734Z,16.99
2023-10-19T14:25:43.685Z,16.97
2023-10-19T14:28:10.835Z,17.01
2023-10-19T14:30:37.264Z,17.00
2023-10-19T14:33:03.936Z,16.94
2023-10-19T14:35:30.333Z,16.94
2023-10-19T14:37:57.825Z,16.88
2023-10-19T14:40:27.533Z,16.83
2023-10-19T14:42:55.632Z,16.80
2023-10-19T14:45:29.547Z,16.77
2023-10-19T14:48:02.588Z,16.77
2023-10-19T14:50:30.372Z,16.78
2023-10-19T14:52:57.648Z,16.73
2023-10-19T14:55:24.445Z,16.68
2023-10-19T14:57:56.241Z,16.63
2023-10-19T15:00:34.221Z,16.61
2023-10-19T15:03:05.899Z,16.56
2023-10-19T15:05:36.403Z,16.50
2023-10-19T15:08:05.808Z,16.51
2023-10-19T15:10:32.493Z,16.50
2023-10-19T15:13:01.917Z,16.49
2023-10-19T15:15:29.832Z,16.48
2023-10-19T15:17:57.097Z,16.49
2023-10-19T15:20:28.537Z,16.45
2023-10-19T15:22:55.697Z,16.52
2023-10-19T15:25:25.402Z,16.54
2023-10-19T15:27:52.535Z,16.60
2023-10-19T15:30:21.524Z,16.64
2023-10-19T15:32:49.145Z,16.68
2023-10-19T15:35:17.274Z,16.74
2023-10-19T15:37:49.224Z,16.81
2023-10-19T15:40:17.074Z,16.87
2023-10-19T15:42:44.441Z,16.89
2023-10-19T15:45:15.526Z,16.90
2023-10-19T15:47:42.401Z,16.92
2023-10-19T15:50:09.947Z,16.93
2023-10-19T15:52:37.407Z,16.94
2023-10-19T15:55:04.266Z,16.90
2023-10-19T15:57:31.728Z,16.92
2023-10-19T15:59:58.095Z,16.88
2023-10-19T16:02:24.567Z,16.84
2023-10-19T16:04:51.180Z,16.82
2023-10-19T16:07:17.577Z,16.78
2023-10-19T16:09:44.214Z,16.78
2023-10-19T16:12:12.155Z,16.78
2023-10-19T16:14:41.313Z,16.73
2023-10-19T16:17:10.065Z,16.70
2023-10-19T16:19:36.636Z,16.70
2023-10-19T16:22:03.195Z,16.65
2023-10-19T16:24:30.339Z,16.61
2023-10-19T16:26:59.644Z,16.54
2023-10-19T16:29:27.247Z,16.51
2023-10-19T16:31:59.343Z,16.44
2023-10-19T16:34:26.498Z,16.34
2023-10-19T16:36:53.346Z,16.26
2023-10-19T16:39:19.850Z,16.16
2023-10-19T16:41:46.895Z,16.07
2023-10-19T16:44:13.971Z,15.97
2023-10-19T16:46:40.724Z,15.88
2023-10-19T16:49:07.417Z,15.82
2023-10-19T16:51:41.459Z,15.76
2023-10-19T16:54:09.337Z,15.71
2023-10-19T16:56:36.802Z,15.66
2023-10-19T16:59:03.797Z,15.62
2023-10-19T17:01:30.394Z,15.56
2023-10-19T17:03:57.221Z,15.60
2023-10-19T17:06:23.793Z,15.62
2023-10-19T17:08:50.151Z,15.66
2023-10-19T17:11:17.766Z,15.67
2023-10-19T17:13:44.459Z,15.65
2023-10-19T17:16:11.481Z,15.62
2023-10-19T17:18:38.165Z,15.61
2023-10-19T17:21:04.661Z,15.58
2023-10-19T17:23:31.052Z,15.54
2023-10-19T17:25:58.471Z,15.51
2023-10-19T17:28:24.994Z,15.49
2023-10-19T17:30:52.277Z,15.47
2023-10-19T17:33:19.253Z,15.46
2023-10-19T17:35:46.041Z,15.45
2023-10-19T17:38:13.823Z,15.47
2023-10-19T17:40:40.704Z,15.45
2023-10-19T17:43:10.459Z,15.46
2023-10-19T17:45:37.613Z,15.45
2023-10-19T17:48:05.011Z,15.39
2023-10-19T17:50:32.758Z,15.38
2023-10-19T17:53:00.733Z,15.36
2023-10-19T17:55:28.154Z,15.34
2023-10-19T17:57:54.718Z,15.31
2023-10-19T18:00:21.056Z,15.29
2023-10-19T18:02:47.537Z,15.25
2023-10-19T18:05:15.410Z,15.26
2023-10-19T18:07:42.571Z,15.25
2023-10-19T18:10:09.832Z,15.22
2023-10-19T18:12:36.494Z,15.18
2023-10-19T18:15:03.080Z,15.16
2023-10-19T18:17:30.128Z,15.16
2023-10-19T18:19:56.625Z,15.12
2023-10-19T18:22:22.996Z,15.13
2023-10-19T18:24:49.404Z,15.11
2023-10-19T18:27:16.605Z,15.11
2023-10-19T18:29:44.961Z,15.11
2023-10-19T18:32:12.391Z,15.08
2023-10-19T18:34:38.882Z,15.09
2023-10-19T18:37:07.089Z,15.09
2023-10-19T18:39:33.498Z,15.11
2023-10-19T18:41:59.814Z,15.08
2023-10-19T18:44:26.258Z,15.11
2023-10-19T18:46:52.950Z,15.02
2023-10-19T18:49:20.020Z,15.06
2023-10-19T18:51:46.447Z,15.06
2023-10-19T18:54:17.787Z,15.02
2023-10-19T18:56:44.221Z,15.03
2023-10-19T18:59:10.621Z,14.99
2023-10-19T19:01:36.957Z,14.98
2023-10-19T19:04:03.303Z,14.94
2023-10-19T19:06:29.670Z,14.90
2023-10-19T19:08:56.012Z,14.89
2023-10-19T19:11:22.440Z,14.89
2023-10-19T19:13:48.915Z,14.90
2023-10-19T19:16:15.884Z,14.90
2023-10-19T19:18:43.870Z,14.87
2023-10-19T19:21:10.975Z,14.89
2023-10-19T19:23:41.562Z,14.86
2023-10-19T19:26:09.366Z,14.90
2023-10-19T19:28:39.993Z,14.90
2023-10-19T19:31:06.508Z,14.88
2023-10-19T19:33:33.042Z,14.89
2023-10-19T19:35:59.386Z,14.86
2023-10-19T19:38:25.780Z,14.87
2023-10-19T19:40:55.185Z,14.87
2023-10-19T19:43:22.427Z,14.88
2023-10-19T19:45:48.798Z,14.86
2023-10-19T19:48:15.292Z,14.87
2023-10-19T19:50:44.907Z,14.88
2023-10-19T19:53:14.515Z,14.89
2023-10-19T19:55:42.401Z,14.88
2023-10-19T19:58:09.631Z,14.91
2023-10-19T20:00:39.112Z,14.94
2023-10-19T20:03:05.709Z,14.94
2023-10-19T20:05:33.735Z,14.92
2023-10-19T20:08:01.397Z,14.95
2023-10-19T20:10:46.471Z,14.94
2023-10-19T20:13:17.056Z,14.93
2023-10-19T20:15:44.115Z,14.92
2023-10-19T20:18:12.245Z,14.92
2023-10-19T20:20:39.169Z,14.92
2023-10-19T20:23:05.726Z,14.91
2023-10-19T20:25:32.292Z,14.95
2023-10-19T20:28:05.632Z,14.97
2023-10-19T20:30:34.501Z,14.96
2023-10-19T20:33:00.924Z,14.96
2023-10-19T20:35:27.639Z,14.97
2023-10-19T20:37:54.437Z,14.96
2023-10-19T20:40:22.467Z,14.98
2023-10-19T20:42:52.606Z,14.93
2023-10-19T20:45:19.265Z,14.96
2023-10-19T20:47:50.836Z,14.95
2023-10-19T20:50:17.584Z,14.95
2023-10-19T20:52:44.092Z,14.92
2023-10-19T20:55:12.437Z,14.95
2023-10-19T20:57:39.006Z,14.94
2023-10-19T21:00:06.357Z,14.93
2023-10-19T21:02:32.926Z,14.97
2023-10-19T21:04:59.470Z,14.97
2023-10-19T21:07:27.021Z,14.97
2023-10-19T21:09:53.878Z,14.95
2023-10-19T21:12:20.286Z,14.95
2023-10-19T21:14:46.636Z,14.94
2023-10-19T21:17:13.997Z,14.94
2023-10-19T21:19:40.423Z,14.95
2023-10-19T21:22:08.458Z,14.95
2023-10-19T21:24:35.420Z,14.94
2023-10-19T21:27:01.863Z,14.97
2023-10-19T21:29:28.241Z,14.97
2023-10-19T21:31:54.634Z,14.96
2023-10-19T21:34:21.019Z,14.95
2023-10-19T21:36:47.532Z,14.94
2023-10-19T21:39:13.834Z,14.96
2023-10-19T21:41:40.196Z,14.94
2023-10-19T21:44:06.739Z,14.94
2023-10-19T21:46:33.197Z,14.85
2023-10-19T21:48:59.544Z,14.90
2023-10-19T21:51:25.886Z,14.89
2023-10-19T21:53:52.222Z,14.86
2023-10-19T21:56:18.754Z,14.87
2023-10-19T21:58:45.174Z,14.86
2023-10-19T22:01:14.561Z,14.84
2023-10-19T22:03:42.586Z,14.87
2023-10-19T22:06:09.207Z,14.86
2023-10-19T22:08:36.314Z,14.85
2023-10-19T22:11:03.368Z,14.83
2023-10-19T22:13:29.807Z,14.88
2023-10-19T22:15:56.162Z,14.90
2023-10-19T22:18:23.502Z,14.96
2023-10-19T22:20:51.811Z,14.95
2023-10-19T22:23:18.371Z,14.97
2023-10-19T22:25:44.735Z,14.98
2023-10-19T22:28:13.622Z,14.96
2023-10-19T22:30:40.018Z,14.94
2023-10-19T22:33:06.444Z,14.96
2023-10-19T22:35:32.834Z,14.98
2023-10-19T22:37:59.276Z,14.96
2023-10-19T22:40:25.674Z,14.99
2023-10-19T22:42:54.404Z,14.99
2023-10-19T22:45:21.538Z,14.98
2023-10-19T22:47:47.926Z,14.98
2023-10-19T22:50:18.034Z,14.95
2023-10-19T22:52:45.518Z,14.96
2023-10-19T22:55:14.866Z,14.95
2023-10-19T22:57:41.959Z,14.95
2023-10-19T23:00:15.670Z,14.98
2023-10-19T23:02:46.330Z,15.00
2023-10-19T23:05:14.367Z,15.01
2023-10-19T23:07:40.952Z,15.00
2023-10-19T23:10:07.934Z,15.00
2023-10-19T23:12:34.754Z,15.00
2023-10-19T23:15:02.768Z,14.99
2023-10-19T23:17:32.712Z,15.01
2023-10-19T23:19:59.583Z,15.01
2023-10-19T23:22:26.376Z,15.02
2023-10-19T23:24:56.837Z,15.05
2023-10-19T23:27:25.674Z,15.08
2023-10-19T23:29:52.023Z,15.08
2023-10-19T23:32:19.329Z,15.10
2023-10-19T23:34:48.913Z,15.12
2023-10-19T23:37:15.652Z,15.12
2023-10-19T23:39:46.240Z,15.12
2023-10-19T23:42:15.492Z,15.09
2023-10-19T23:44:42.644Z,15.12
2023-10-19T23:47:09.093Z,15.15
2023-10-19T23:49:35.435Z,15.21
2023-10-19T23:52:01.806Z,15.23
2023-10-19T23:54:29.128Z,15.19
2023-10-19T23:56:55.470Z,15.16
2023-10-19T23:59:21.898Z,15.11
